• Join FlightAware (Why Join?)
  • Login
  • US Flag 
04:41PM EST


 

Airport Tracker/Info


-or-


 

Live Flight TrackerFlight Track Log ✈ SKW5500 ✈ 28-Apr-2013 ✈ KDEN - KASE

Flight Track Log - Related Links

Times and Time Zones

All times are in EDT time to prevent confusion due to time zone crossing. See the SKW5500 flight status page for this flight to view local times or setup timezone preferences in your user account.

Time Position Orientation Groundspeed Altitude Reporting Facility
EDT Latitude Longitude Course Direction KTS MPH feet Rate Location/Type
05:47PM 39.7058 -105.2250 250° West  Level Estimated
05:48PM 39.6743 -105.3351 250° West  Level Estimated
05:49PM 39.6427 -105.4451 250° West  Level Estimated
05:50PM 39.6110 -105.5549 250° West  Level Estimated
05:51PM 39.5793 -105.6647 249° West  Level Estimated
05:52PM 39.5474 -105.7744 249° West  Level Estimated
05:53PM 39.5154 -105.8839 249° West  Level Estimated
05:54PM 39.4832 -105.9934 249° West  Level Estimated
05:55PM 39.4510 -106.1027 249° West  Level Estimated
05:56PM 39.4187 -106.2120 249° West  Level Estimated
05:57PM 39.3863 -106.3212 249° West  Level Estimated
05:58PM 39.3538 -106.4302 249° West  Level Estimated
05:59PM 39.3212 -106.5392 249° West  Level Estimated
06:00PM 39.2885 -106.6480 249° West  Level Estimated
06:01PM 39.2556 -106.7568 249° West  Level Estimated
06:02PM 39.2227 -106.8654 249° West  Level Estimated
06:03PM 39.2219 -106.8682 249° West  Level Estimated
06:04PM 39.2219 -106.8682 239° Southwest  Level Estimated
06:05PM 39.2219 -106.8682 239° Southwest  Level Estimated
06:06PM 39.2219 -106.8682 239° Southwest  Level Estimated
06:07PM 39.2219 -106.8682 239° Southwest  Level Estimated
06:08PM 39.2219 -106.8682 239° Southwest  Level Estimated
06:09PM 39.2219 -106.8682 239° Southwest  Level Estimated